Augusta, AR

7:16 PM CDT on August 28, 2015 (GMT -0500)
South Edmonds - MacTown | | Change Station
CLOSE
Current Station
Personal Weather Station
Location: McCrory, AR
Elevation: 207 ft
Nearby Weather Stations
Active Advisory: Flood Warning

Elev 207 ft 35.27 °N, 91.20 °W | Updated 4 seconds ago

Clear
Clear
79.3 °F
Feels Like 83 °F
N
0.0
Wind Variable Wind from SSE
Gusts 0.0 mph

Today
High -- | Low -- °F
--% Chance of Precip.
Yesterday
High -- | Low -- °F
Precip. -- in
6:34 AM 7:38 PM
Waxing Gibbous, 99% visible
Pressure 30.01 in
Visibility 10.0 miles
Clouds Clear
Heat Index 83 °F
Dew Point 72 °F
Humidity 77%
Rainfall 0.00 in
Snow Depth Not available.
UV 0.0 out of 12
Pollen 8.70 out of 12
Air Quality Not available.
Flu Activity Not available.
METAR KSRC 282356Z AUTO 21004KT 10SM CLR 27/17 A3000 RMK AO2 SLP161 6//// T02670172 10306 20267 56010 TSNO
Pressure 30.01 in
Visibility 10.0 miles
Clouds Clear
Heat Index 83 °F
Dew Point 72 °F
Humidity 77%
Rainfall 0.00 in
Snow Depth Not available.
UV 0.0 out of 12
Pollen 8.70 out of 12
Air Quality Not available.
Flu Activity Not available.
METAR KSRC 282356Z AUTO 21004KT 10SM CLR 27/17 A3000 RMK AO2 SLP161 6//// T02670172 10306 20267 56010 TSNO

10-Day Weather Forecast

×

Almanac

Astronomy

Aug. 28, 2015 Rise Set
Actual Time
Civil Twilight
Nautical Twilight
Astronomical Twilight
Moon
Length of Visible Light
Length of Day
Tomorrow will be .
, % of the Moon is Illuminated

Today's Extremes

State Highs State Lows

Community

WunderPhotos

Upload Photos

1,850,543 photos uploaded!

WunderBlogs® & News

Nearby

Air Quality

  Air Quality AQ Index Pollutant
Not available.

Snow Depth

Station Depth Elevation

Earthquake Activity

City Distance Mag. Time & Date
Minimum magnitude displayed is 2.5.

Coastal Water Temperatures

Place Temperature

Stations

Nearby Weather Stations

Station Location Temp. Windchill Dew Point Humidity Wind Precip. Elev Updated Type
                   
Flood Warning
Statement as of 9:48 AM CDT on August 28, 2015

The Flood Warning continues for
the Cache River near Patterson.
* Until further notice... or until the warning is cancelled.
* At 9:00 am Friday the stage was 8.6 feet.
* Minor flooding is occurring and minor flooding is forecast.
* Flood stage is 8.0 feet.
* Forecast... the river will continue to fall through the next week..
* impact... at 8.0 feet... low swampy Timberland along the river begins
to flood. Flood gates should be closed and equipment moved out of
the low grounds along the river and tributaries.



             Fld observed forecast 7 am
location stg stg day time Sat sun Mon Tue Wed

Cache River
Patterson 8 8.6 Fri 09 am 8.4 8.3 8.2 8.1 8.1



Lat... Lon 3510 9133 3522 9128 3539 9123 3538 9113
3521 9117 3508 9122